Terminal Aerodrome Forecast
Issued by NWS Billings, MT

Home | Current Version | Previous Version | Text Only | Print | Product List | Glossary On
Versions: 1 2 3 4 5 6 7 8 9 10 11 12 13 14 15 16 17 18 19 20 21 22 23 24 25 26 27 28 29
000
FTUS45 KBYZ 280949 AAB
TAFBIL
TAF AMD
KBIL 280949Z 2810/2906 22007KT P6SM BKN040 OVC070
     FM281100 26014KT P6SM VCSH BKN060
     FM281600 02014KT 5SM -SN OVC050
     FM282000 03014KT 1SM -SN OVC010
     FM282300 02009KT 1/2SM SN OVC006=

USA.gov is the U.S. government's official web portal to all federal, state and local government web resources and services.